createdAt,value
2018-08-04T00:56:10.561Z,20.00
2018-08-04T00:58:39.294Z,20.00
2018-08-04T01:01:08.194Z,19.90
2018-08-04T01:03:37.642Z,19.90
2018-08-04T01:06:06.177Z,19.90
2018-08-04T01:08:34.717Z,19.90
2018-08-04T01:11:04.144Z,19.90
2018-08-04T01:13:32.667Z,19.90
2018-08-04T01:16:01.114Z,19.90
2018-08-04T01:18:29.742Z,19.90
2018-08-04T01:20:58.393Z,19.90
2018-08-04T01:23:27.166Z,19.90
2018-08-04T01:25:57.390Z,19.90
2018-08-04T01:28:26.402Z,19.80
2018-08-04T01:30:55.104Z,19.70
2018-08-04T01:33:24.298Z,19.70
2018-08-04T01:35:53.769Z,19.70
2018-08-04T01:38:22.167Z,19.60
2018-08-04T01:40:50.896Z,19.60
2018-08-04T01:43:19.273Z,19.60
2018-08-04T01:45:47.996Z,19.50
2018-08-04T01:48:17.379Z,19.50
2018-08-04T01:50:46.132Z,19.50
2018-08-04T01:53:14.661Z,19.50
2018-08-04T01:55:43.524Z,19.50
2018-08-04T01:58:12.122Z,19.40
2018-08-04T02:00:40.949Z,19.40
2018-08-04T02:03:09.356Z,19.40
2018-08-04T02:05:37.868Z,19.40
2018-08-04T02:08:06.522Z,19.50
2018-08-04T02:10:34.959Z,19.50
2018-08-04T02:13:04.413Z,19.60
2018-08-04T02:15:32.880Z,19.60
2018-08-04T02:18:01.266Z,19.60
2018-08-04T02:20:29.840Z,19.60
2018-08-04T02:22:58.480Z,19.60
2018-08-04T02:25:27.225Z,19.60
2018-08-04T02:27:57.372Z,19.70
2018-08-04T02:30:26.005Z,19.70
2018-08-04T02:32:54.882Z,19.70
2018-08-04T02:35:24.501Z,19.70
2018-08-04T02:37:53.047Z,19.70
2018-08-04T02:40:21.478Z,19.70
2018-08-04T02:42:49.899Z,19.80
2018-08-04T02:45:19.598Z,19.80
2018-08-04T02:47:49.490Z,19.80
2018-08-04T02:50:18.111Z,19.80
2018-08-04T02:52:46.517Z,19.80
2018-08-04T02:55:14.943Z,19.70
2018-08-04T02:57:45.340Z,19.70
2018-08-04T03:00:13.751Z,19.70
2018-08-04T03:02:42.123Z,19.70
2018-08-04T03:05:10.524Z,19.70
2018-08-04T03:07:40.113Z,19.70
2018-08-04T03:10:08.574Z,19.70
2018-08-04T03:12:37.383Z,19.70
2018-08-04T03:15:06.022Z,19.60
2018-08-04T03:17:34.603Z,19.60
2018-08-04T03:20:03.329Z,19.60
2018-08-04T03:22:32.120Z,19.60
2018-08-04T03:25:00.928Z,19.60
2018-08-04T03:27:29.331Z,19.60
2018-08-04T03:29:58.437Z,19.50
2018-08-04T03:32:27.255Z,19.50
2018-08-04T03:34:56.508Z,19.50
2018-08-04T03:37:24.924Z,19.50
2018-08-04T03:39:53.421Z,19.40
2018-08-04T03:42:21.849Z,19.40
2018-08-04T03:44:50.656Z,19.40
2018-08-04T03:47:19.798Z,19.40
2018-08-04T03:49:48.167Z,19.40
2018-08-04T03:52:16.663Z,19.40
2018-08-04T03:54:45.441Z,19.40
2018-08-04T03:57:13.976Z,19.40
2018-08-04T03:59:42.922Z,19.40
2018-08-04T04:02:12.295Z,19.40
2018-08-04T04:04:42.234Z,19.40
2018-08-04T04:07:11.293Z,19.50
2018-08-04T04:09:39.700Z,19.50
2018-08-04T04:12:08.261Z,19.50
2018-08-04T04:14:37.279Z,19.60
2018-08-04T04:17:05.796Z,19.60
2018-08-04T04:19:34.293Z,19.60
2018-08-04T04:22:02.758Z,19.60
2018-08-04T04:24:31.960Z,19.60
2018-08-04T04:27:00.566Z,19.60
2018-08-04T04:29:29.239Z,19.60
2018-08-04T04:31:57.973Z,19.60
2018-08-04T04:36:55.062Z,19.80
2018-08-04T04:39:23.391Z,19.80
2018-08-04T04:41:51.832Z,19.90
2018-08-04T04:44:20.226Z,20.00
2018-08-04T04:46:48.709Z,20.00
2018-08-04T04:49:17.891Z,20.10
2018-08-04T04:51:46.669Z,20.10
2018-08-04T04:54:15.636Z,20.20
2018-08-04T04:56:45.417Z,20.20
2018-08-04T04:59:14.488Z,20.20
2018-08-04T05:01:43.035Z,20.30
2018-08-04T05:04:11.817Z,20.30
2018-08-04T05:06:40.222Z,20.30
2018-08-04T05:09:09.708Z,20.40
2018-08-04T05:11:38.440Z,20.40
2018-08-04T05:14:07.994Z,20.40
2018-08-04T05:16:36.433Z,20.40
2018-08-04T05:19:05.280Z,20.40
2018-08-04T05:21:34.406Z,20.50
2018-08-04T05:24:03.117Z,20.50
2018-08-04T05:26:31.526Z,20.50
2018-08-04T05:29:00.948Z,20.50
2018-08-04T05:31:30.128Z,20.40
2018-08-04T05:33:58.691Z,20.40
2018-08-04T05:36:27.273Z,20.40
2018-08-04T05:38:55.799Z,20.40
2018-08-04T05:41:24.313Z,20.50
2018-08-04T05:43:53.249Z,20.60
2018-08-04T05:46:24.672Z,20.70
2018-08-04T05:48:55.703Z,20.70
2018-08-04T05:51:25.469Z,20.80
2018-08-04T05:53:53.873Z,21.00
2018-08-04T05:56:22.505Z,21.10
2018-08-04T05:58:51.580Z,21.40
2018-08-04T06:01:20.151Z,21.60
2018-08-04T06:03:49.068Z,22.00
2018-08-04T06:06:17.709Z,22.80
2018-08-04T06:08:46.429Z,23.90
2018-08-04T06:11:16.152Z,25.20
2018-08-04T06:13:44.593Z,26.00
2018-08-04T06:16:13.010Z,26.40
2018-08-04T06:18:41.785Z,27.10
2018-08-04T06:21:11.331Z,27.50
2018-08-04T06:23:39.683Z,28.10
2018-08-04T06:26:08.679Z,27.60
2018-08-04T06:28:37.333Z,27.50
2018-08-04T06:31:05.915Z,27.30
2018-08-04T06:33:36.109Z,27.40
2018-08-04T06:36:05.039Z,27.50
2018-08-04T06:38:37.024Z,28.20
2018-08-04T06:41:06.232Z,29.10
2018-08-04T06:43:34.654Z,28.90
2018-08-04T06:46:03.121Z,30.40
2018-08-04T06:48:32.402Z,31.50
2018-08-04T06:51:00.808Z,32.30
2018-08-04T06:53:29.624Z,32.80
2018-08-04T06:55:58.103Z,33.30
2018-08-04T06:58:26.922Z,33.90
2018-08-04T07:00:55.677Z,33.90
2018-08-04T07:03:26.237Z,34.70
2018-08-04T07:05:54.736Z,34.70
2018-08-04T07:08:23.389Z,34.90
2018-08-04T07:13:20.272Z,34.10
2018-08-04T07:15:48.736Z,34.60
2018-08-04T07:18:18.374Z,34.70
2018-08-04T07:20:46.768Z,34.60
2018-08-04T07:23:15.505Z,34.70
2018-08-04T07:25:43.920Z,34.70
2018-08-04T07:28:14.112Z,34.90
2018-08-04T07:30:42.643Z,35.80
2018-08-04T07:33:11.038Z,36.90
2018-08-04T07:35:39.921Z,36.80
2018-08-04T07:38:08.513Z,36.40
2018-08-04T07:40:37.768Z,36.30
2018-08-04T07:43:06.569Z,35.40
2018-08-04T07:45:34.999Z,34.60
2018-08-04T07:48:04.957Z,33.70
2018-08-04T07:50:33.760Z,33.10
2018-08-04T07:53:02.921Z,33.90
2018-08-04T07:55:31.680Z,34.90
2018-08-04T07:58:00.354Z,35.30
2018-08-04T08:00:28.938Z,35.60
2018-08-04T08:02:57.477Z,35.80
2018-08-04T08:05:25.845Z,36.40
2018-08-04T08:07:55.054Z,36.30
2018-08-04T08:10:24.336Z,36.10
2018-08-04T08:12:53.084Z,36.90
2018-08-04T08:15:21.753Z,37.30
2018-08-04T08:17:50.526Z,37.50
2018-08-04T08:20:19.391Z,38.10
2018-08-04T08:22:47.832Z,37.70
2018-08-04T08:25:16.525Z,37.60
2018-08-04T08:27:45.345Z,37.70
2018-08-04T08:30:15.128Z,37.80
2018-08-04T08:32:45.513Z,38.20
2018-08-04T08:35:15.569Z,37.70
2018-08-04T08:37:44.281Z,37.00
2018-08-04T08:40:13.720Z,36.90
2018-08-04T08:42:42.397Z,37.60
2018-08-04T08:45:11.672Z,38.20
2018-08-04T08:47:40.188Z,38.70
2018-08-04T08:50:10.921Z,39.20
2018-08-04T08:52:39.549Z,39.40
2018-08-04T08:55:08.985Z,38.90
2018-08-04T08:57:37.841Z,39.00
2018-08-04T09:00:08.688Z,38.50
2018-08-04T09:02:37.770Z,38.70
2018-08-04T09:05:06.973Z,38.80
2018-08-04T09:07:35.997Z,39.10
2018-08-04T09:10:07.117Z,39.60
2018-08-04T09:12:36.044Z,39.60
2018-08-04T09:15:04.929Z,39.70
2018-08-04T09:17:34.008Z,39.70
2018-08-04T09:20:02.650Z,40.20
2018-08-04T09:22:32.594Z,39.90
2018-08-04T09:25:01.084Z,39.40
2018-08-04T09:27:30.302Z,39.70
2018-08-04T09:29:59.155Z,39.50
2018-08-04T09:32:27.917Z,39.90
2018-08-04T09:34:56.942Z,40.10
2018-08-04T09:37:26.597Z,40.70
2018-08-04T09:39:55.474Z,40.70
2018-08-04T09:42:24.668Z,40.40
2018-08-04T09:44:53.596Z,40.30
2018-08-04T09:47:22.066Z,40.20
2018-08-04T09:49:51.245Z,40.00
2018-08-04T09:52:23.758Z,39.80
2018-08-04T09:57:20.889Z,40.20
2018-08-04T09:59:49.299Z,40.40
2018-08-04T10:02:24.154Z,40.60
2018-08-04T10:04:53.293Z,40.90
2018-08-04T10:07:21.763Z,40.70
2018-08-04T10:09:51.190Z,40.70
2018-08-04T10:12:19.763Z,40.80
2018-08-04T10:14:48.837Z,40.50
2018-08-04T10:17:17.284Z,40.50
2018-08-04T10:19:46.627Z,39.70
2018-08-04T10:22:15.367Z,39.80
2018-08-04T10:24:43.917Z,40.00
2018-08-04T10:27:12.355Z,39.80
2018-08-04T10:29:41.446Z,39.90
2018-08-04T10:32:10.754Z,39.80
2018-08-04T10:34:39.208Z,40.10
2018-08-04T10:39:36.730Z,40.30
2018-08-04T10:42:05.303Z,40.40
2018-08-04T10:44:33.731Z,40.70
2018-08-04T10:47:03.182Z,40.40
2018-08-04T10:49:31.951Z,40.60
2018-08-04T10:52:00.997Z,40.40
2018-08-04T10:54:33.691Z,39.60
2018-08-04T10:57:04.064Z,39.50
2018-08-04T10:59:32.474Z,39.60
2018-08-04T11:02:01.313Z,39.60
2018-08-04T11:04:30.120Z,39.30
2018-08-04T11:06:58.991Z,39.40
2018-08-04T11:09:28.211Z,39.20
2018-08-04T11:11:57.243Z,39.20
2018-08-04T11:14:26.104Z,38.70
2018-08-04T11:16:54.968Z,38.50
2018-08-04T11:19:23.585Z,37.80
2018-08-04T11:21:52.196Z,37.40
2018-08-04T11:24:20.892Z,37.20
2018-08-04T11:26:49.740Z,36.90
2018-08-04T11:29:18.620Z,36.70
2018-08-04T11:31:47.405Z,36.70
2018-08-04T11:34:17.646Z,36.80
2018-08-04T11:36:46.336Z,36.80
2018-08-04T11:39:21.656Z,36.90
2018-08-04T11:41:50.461Z,37.00
2018-08-04T11:44:19.587Z,37.00
2018-08-04T11:46:48.908Z,36.90
2018-08-04T11:49:18.321Z,36.70
2018-08-04T11:51:47.927Z,36.70
2018-08-04T11:54:16.720Z,36.70
2018-08-04T11:56:45.299Z,36.70
2018-08-04T11:59:13.957Z,36.40
2018-08-04T12:01:42.852Z,36.10
2018-08-04T12:04:11.467Z,36.00
2018-08-04T12:06:40.029Z,35.90
2018-08-04T12:09:11.105Z,35.70
2018-08-04T12:11:39.774Z,35.70
2018-08-04T12:14:10.268Z,35.80
2018-08-04T12:16:38.976Z,35.80
2018-08-04T12:19:07.695Z,35.60
2018-08-04T12:21:36.354Z,35.90
2018-08-04T12:24:05.087Z,35.90
2018-08-04T12:26:33.564Z,35.90
2018-08-04T12:29:02.701Z,35.70
2018-08-04T12:31:31.624Z,35.80
2018-08-04T12:34:00.407Z,35.80
2018-08-04T12:38:58.368Z,35.70
2018-08-04T12:41:27.085Z,35.60
2018-08-04T12:43:55.736Z,35.70
2018-08-04T12:46:24.341Z,35.60
2018-08-04T12:48:53.120Z,35.60
2018-08-04T12:51:21.519Z,35.60
2018-08-04T12:53:50.880Z,35.80
2018-08-04T12:56:22.192Z,35.80
2018-08-04T12:58:50.687Z,35.60
2018-08-04T13:01:19.484Z,35.70
2018-08-04T13:03:48.501Z,35.90
2018-08-04T13:06:19.294Z,35.70
2018-08-04T13:08:47.703Z,35.60
2018-08-04T13:11:16.192Z,35.50
2018-08-04T13:13:45.619Z,35.70
2018-08-04T13:16:14.093Z,35.80
2018-08-04T13:18:42.952Z,36.00
2018-08-04T13:21:11.377Z,35.20
2018-08-04T13:23:40.384Z,35.20
2018-08-04T13:26:08.891Z,35.30
2018-08-04T13:28:37.900Z,35.40
2018-08-04T13:31:08.073Z,35.50
2018-08-04T13:33:36.828Z,35.60
2018-08-04T13:36:05.834Z,35.60
2018-08-04T13:38:34.575Z,35.60
2018-08-04T13:41:03.267Z,35.40
2018-08-04T13:43:32.035Z,35.20
2018-08-04T13:46:00.583Z,34.90
2018-08-04T13:48:29.183Z,34.90
2018-08-04T13:50:57.919Z,34.80
2018-08-04T13:53:26.426Z,34.80
2018-08-04T13:55:55.453Z,34.90
2018-08-04T13:58:24.297Z,34.90
2018-08-04T14:00:53.847Z,35.30
2018-08-04T14:03:22.287Z,35.40
2018-08-04T14:05:51.120Z,35.50
2018-08-04T14:08:19.744Z,35.60
2018-08-04T14:10:49.198Z,35.50
2018-08-04T14:13:17.732Z,35.40
2018-08-04T14:15:46.563Z,35.60
2018-08-04T14:18:15.955Z,35.80
2018-08-04T14:20:44.371Z,35.80
2018-08-04T14:23:13.000Z,36.10
2018-08-04T14:25:41.471Z,36.00
2018-08-04T14:28:09.982Z,35.70
2018-08-04T14:30:42.580Z,35.60
2018-08-04T14:33:11.645Z,35.80
2018-08-04T14:35:40.640Z,35.50
2018-08-04T14:38:09.378Z,35.60
2018-08-04T14:40:38.331Z,35.50
2018-08-04T14:43:06.889Z,35.40
2018-08-04T14:45:35.554Z,35.40
2018-08-04T14:48:04.131Z,35.10
2018-08-04T14:50:32.998Z,35.00
2018-08-04T14:53:02.078Z,35.10
2018-08-04T14:55:30.694Z,34.90
2018-08-04T14:57:59.389Z,34.60
2018-08-04T15:00:27.908Z,34.60
2018-08-04T15:02:56.314Z,34.60
2018-08-04T15:05:25.214Z,34.40
2018-08-04T15:07:53.874Z,34.30
2018-08-04T15:10:22.523Z,34.40
2018-08-04T15:12:51.585Z,34.40
2018-08-04T15:15:20.164Z,34.40
2018-08-04T15:17:54.602Z,34.40
2018-08-04T15:20:23.363Z,34.30
2018-08-04T15:22:52.487Z,34.30
2018-08-04T15:25:21.495Z,34.10
2018-08-04T15:27:50.059Z,34.20
2018-08-04T15:30:18.535Z,34.20
2018-08-04T15:32:48.564Z,34.10
2018-08-04T15:35:17.927Z,34.00
2018-08-04T15:37:49.023Z,33.70
2018-08-04T15:40:17.724Z,33.70
2018-08-04T15:42:47.257Z,33.60
2018-08-04T15:45:15.760Z,33.60
2018-08-04T15:47:45.244Z,33.50
2018-08-04T15:50:14.036Z,33.40
2018-08-04T15:52:43.708Z,33.40
2018-08-04T15:55:13.462Z,33.50
2018-08-04T15:57:42.036Z,33.30
2018-08-04T16:00:11.687Z,33.50
2018-08-04T16:02:40.758Z,33.40
2018-08-04T16:05:09.749Z,33.40
2018-08-04T16:07:42.061Z,33.30
2018-08-04T16:10:12.091Z,33.20
2018-08-04T16:12:41.092Z,33.00
2018-08-04T16:15:10.525Z,32.70
2018-08-04T16:20:14.305Z,31.80
2018-08-04T16:22:45.947Z,31.20
2018-08-04T16:25:15.351Z,30.80
2018-08-04T16:27:45.655Z,30.30
2018-08-04T16:30:14.617Z,30.00
2018-08-04T16:32:43.611Z,29.90
2018-08-04T16:35:12.589Z,29.70
2018-08-04T16:37:41.771Z,29.60
2018-08-04T16:40:10.563Z,29.50
2018-08-04T16:42:39.615Z,29.50
2018-08-04T16:45:09.101Z,29.30
2018-08-04T16:47:37.679Z,29.20
2018-08-04T16:50:06.400Z,29.10
2018-08-04T16:52:35.998Z,29.10
2018-08-04T16:55:05.569Z,29.10
2018-08-04T16:57:35.186Z,29.20
2018-08-04T17:00:04.100Z,29.20
2018-08-04T17:02:33.712Z,29.20
2018-08-04T17:05:02.939Z,29.20
2018-08-04T17:07:31.363Z,29.20
2018-08-04T17:09:59.809Z,29.00
2018-08-04T17:12:28.494Z,28.90
2018-08-04T17:14:57.407Z,28.80
2018-08-04T17:17:26.097Z,28.80
2018-08-04T17:19:54.837Z,28.80
2018-08-04T17:22:23.377Z,28.80
2018-08-04T17:24:52.581Z,28.70
2018-08-04T17:27:21.401Z,28.80
2018-08-04T17:29:49.865Z,28.70
2018-08-04T17:32:19.823Z,28.60
2018-08-04T17:34:48.382Z,28.60
2018-08-04T17:37:17.069Z,28.40
2018-08-04T17:39:46.241Z,28.40
2018-08-04T17:42:14.698Z,28.30
2018-08-04T17:44:43.387Z,28.30
2018-08-04T17:47:11.940Z,28.20
2018-08-04T17:49:40.527Z,28.20
2018-08-04T17:52:09.484Z,28.00
2018-08-04T17:54:38.064Z,28.00
2018-08-04T17:57:06.993Z,27.80
2018-08-04T17:59:35.725Z,27.80
2018-08-04T18:02:04.603Z,27.70
2018-08-04T18:04:33.422Z,27.70
2018-08-04T18:07:02.322Z,27.60
2018-08-04T18:09:30.938Z,27.60
2018-08-04T18:11:59.990Z,27.50
2018-08-04T18:14:28.670Z,27.40
2018-08-04T18:16:57.423Z,27.30
2018-08-04T18:19:25.852Z,27.30
2018-08-04T18:21:54.304Z,27.20
2018-08-04T18:24:22.885Z,27.10
2018-08-04T18:26:51.644Z,27.00
2018-08-04T18:29:21.465Z,26.90
2018-08-04T18:31:49.969Z,26.80
2018-08-04T18:34:19.047Z,26.70
2018-08-04T18:36:48.002Z,26.70
2018-08-04T18:39:17.156Z,26.60
2018-08-04T18:41:45.584Z,26.50
2018-08-04T18:44:14.396Z,26.40
2018-08-04T18:46:43.155Z,26.40
2018-08-04T18:49:11.670Z,26.30
2018-08-04T18:51:40.789Z,26.30
2018-08-04T18:54:10.300Z,26.20
2018-08-04T18:56:39.368Z,26.10
2018-08-04T18:59:07.987Z,26.10
2018-08-04T19:01:36.787Z,26.10
2018-08-04T19:04:05.460Z,26.00
2018-08-04T19:06:35.746Z,26.00
2018-08-04T19:09:06.467Z,25.90
2018-08-04T19:11:34.876Z,25.80
2018-08-04T19:14:03.857Z,25.70
2018-08-04T19:16:32.273Z,25.60
2018-08-04T19:19:02.102Z,25.50
2018-08-04T19:21:30.838Z,25.40
2018-08-04T19:26:34.846Z,25.20
2018-08-04T19:29:03.996Z,25.10
2018-08-04T19:31:37.172Z,25.10
2018-08-04T19:34:11.353Z,25.00
2018-08-04T19:36:42.811Z,24.90
2018-08-04T19:41:42.363Z,24.80
2018-08-04T19:44:11.483Z,24.80
2018-08-04T19:46:42.472Z,24.70
2018-08-04T19:49:11.404Z,24.70
2018-08-04T19:51:40.168Z,24.60
2018-08-04T19:56:37.780Z,24.50
2018-08-04T19:59:06.867Z,24.60
2018-08-04T20:01:35.673Z,24.50
2018-08-04T20:04:04.702Z,24.40
2018-08-04T20:06:33.571Z,24.40
2018-08-04T20:09:02.387Z,24.30
2018-08-04T20:11:31.230Z,24.30
2018-08-04T20:13:59.932Z,24.20
2018-08-04T20:16:29.643Z,24.20
2018-08-04T20:18:58.405Z,24.10
2018-08-04T20:21:27.365Z,24.10
2018-08-04T20:23:56.294Z,24.00
2018-08-04T20:26:25.225Z,24.00
2018-08-04T20:28:54.130Z,23.90
2018-08-04T20:31:22.751Z,23.90
2018-08-04T20:33:51.781Z,23.90
2018-08-04T20:36:20.397Z,23.80
2018-08-04T20:38:50.043Z,23.70
2018-08-04T20:41:20.292Z,23.60
2018-08-04T20:43:48.809Z,23.60
2018-08-04T20:46:17.883Z,23.50
2018-08-04T20:48:46.610Z,23.50
2018-08-04T20:51:15.509Z,23.50
2018-08-04T20:53:44.558Z,23.60
2018-08-04T20:56:13.589Z,23.50
2018-08-04T20:58:43.656Z,23.50
2018-08-04T21:01:23.306Z,23.50
2018-08-04T21:03:53.034Z,23.50
2018-08-04T21:06:23.017Z,23.40
2018-08-04T21:08:52.034Z,23.30
2018-08-04T21:11:21.163Z,23.30
2018-08-04T21:13:49.786Z,23.20
2018-08-04T21:16:18.499Z,23.10
2018-08-04T21:18:47.105Z,23.10
2018-08-04T21:21:16.232Z,22.90
2018-08-04T21:23:46.793Z,22.90
2018-08-04T21:26:15.719Z,22.90
2018-08-04T21:28:44.741Z,22.90
2018-08-04T21:31:13.839Z,22.90
2018-08-04T21:33:42.756Z,22.80
2018-08-04T21:36:11.799Z,22.70
2018-08-04T21:38:40.468Z,22.70
2018-08-04T21:41:11.559Z,22.70
2018-08-04T21:43:40.375Z,22.70
2018-08-04T21:46:09.536Z,22.70
2018-08-04T21:48:38.899Z,22.60
2018-08-04T21:51:07.745Z,22.70
2018-08-04T21:53:36.513Z,22.60
